createdAt,value
2022-08-03T00:00:26.447Z,101620.78
2022-08-03T00:02:53.649Z,101618.38
2022-08-03T00:05:20.289Z,101615.38
2022-08-03T00:07:46.704Z,101621.66
2022-08-03T00:10:16.054Z,101613.97
2022-08-03T00:12:42.465Z,101608.13
2022-08-03T00:15:11.273Z,101613.63
2022-08-03T00:17:53.029Z,101611.22
2022-08-03T00:20:21.192Z,101614.88
2022-08-03T00:22:47.739Z,101610.63
2022-08-03T00:25:14.136Z,101615.31
2022-08-03T00:27:40.516Z,101613.94
2022-08-03T00:30:07.491Z,101606.47
2022-08-03T00:32:33.891Z,101604.47
2022-08-03T00:35:00.378Z,101606.31
2022-08-03T00:37:41.514Z,101612.81
2022-08-03T00:40:10.695Z,101616.50
2022-08-03T00:42:50.754Z,101604.78
2022-08-03T00:45:18.638Z,101611.88
2022-08-03T00:47:45.792Z,101603.63
2022-08-03T00:50:12.802Z,101606.69
2022-08-03T00:52:39.940Z,101604.72
2022-08-03T00:55:06.508Z,101601.09
2022-08-03T00:57:33.619Z,101596.28
2022-08-03T01:00:00.837Z,101593.47
2022-08-03T01:02:28.850Z,101593.94
2022-08-03T01:04:56.353Z,101594.38
2022-08-03T01:07:51.060Z,101593.19
2022-08-03T01:10:32.486Z,101593.47
2022-08-03T01:14:01.080Z,101591.06
2022-08-03T01:16:37.467Z,101592.88
2022-08-03T01:19:47.107Z,101595.13
2022-08-03T01:22:44.463Z,101591.97
2022-08-03T01:25:36.411Z,101597.66
2022-08-03T01:28:03.524Z,101588.59
2022-08-03T01:30:33.474Z,101593.69
2022-08-03T01:33:13.287Z,101595.16
2022-08-03T01:35:51.927Z,101588.91
2022-08-03T01:38:25.921Z,101591.75
2022-08-03T01:40:56.796Z,101592.00
2022-08-03T01:44:03.053Z,101588.97
2022-08-03T01:46:17.135Z,101590.22
2022-08-03T01:48:46.298Z,101589.59
2022-08-03T01:51:15.545Z,101581.56
2022-08-03T01:53:44.796Z,101581.75
2022-08-03T01:56:12.513Z,101576.72
2022-08-03T01:58:41.307Z,101572.72
2022-08-03T02:01:10.053Z,101570.50
2022-08-03T02:03:59.707Z,101575.19
2022-08-03T02:07:00.172Z,101584.06
2022-08-03T02:09:14.883Z,101579.03
2022-08-03T02:11:43.384Z,101578.41
2022-08-03T02:14:10.878Z,101579.63
2022-08-03T02:16:37.432Z,101575.63
2022-08-03T02:19:06.498Z,101574.22
2022-08-03T02:21:56.335Z,101578.88
2022-08-03T02:24:23.228Z,101582.13
2022-08-03T02:26:51.556Z,101583.53
2022-08-03T02:29:40.333Z,101574.63
2022-08-03T02:32:12.426Z,101578.88
2022-08-03T02:34:41.021Z,101570.56
2022-08-03T02:37:10.280Z,101574.41
2022-08-03T02:39:37.740Z,101567.72
2022-08-03T02:42:07.584Z,101559.63
2022-08-03T02:44:36.041Z,101556.78
2022-08-03T02:47:06.732Z,101556.56
2022-08-03T02:49:50.334Z,101557.16
2022-08-03T02:52:23.210Z,101550.13
2022-08-03T02:54:53.832Z,101555.38
2022-08-03T02:57:22.360Z,101551.91
2022-08-03T02:59:50.512Z,101553.72
2022-08-03T03:02:19.004Z,101552.13
2022-08-03T03:05:53.360Z,101548.09
2022-08-03T03:07:47.795Z,101550.13
2022-08-03T03:10:23.278Z,101545.47
2022-08-03T03:12:57.232Z,101554.38
2022-08-03T03:15:25.747Z,101558.03
2022-08-03T03:17:53.621Z,101552.97
2022-08-03T03:20:29.544Z,101554.19
2022-08-03T03:23:00.236Z,101554.41
2022-08-03T03:25:28.744Z,101545.50
2022-08-03T03:27:55.493Z,101541.25
2022-08-03T03:30:24.903Z,101544.09
2022-08-03T03:32:52.588Z,101546.72
2022-08-03T03:35:19.379Z,101546.97
2022-08-03T03:37:46.091Z,101546.16
2022-08-03T03:40:13.799Z,101543.16
2022-08-03T03:42:40.550Z,101549.19
2022-08-03T03:45:08.120Z,101545.78
2022-08-03T03:47:35.679Z,101550.22
2022-08-03T03:50:03.978Z,101548.03
2022-08-03T03:52:32.259Z,101548.03
2022-08-03T03:55:01.074Z,101543.78
2022-08-03T03:57:28.124Z,101549.81
2022-08-03T03:59:54.508Z,101550.66
2022-08-03T04:02:21.061Z,101556.91
2022-08-03T04:05:10.779Z,101551.22
2022-08-03T04:08:10.261Z,101552.84
2022-08-03T04:10:59.638Z,101551.59
2022-08-03T04:13:37.577Z,101551.97
2022-08-03T04:16:06.081Z,101556.41
2022-08-03T04:18:34.555Z,101555.19
2022-08-03T04:21:08.281Z,101558.00
2022-08-03T04:23:37.710Z,101558.09
2022-08-03T04:26:09.564Z,101553.22
2022-08-03T04:28:37.461Z,101550.28
2022-08-03T04:31:05.236Z,101541.38
2022-08-03T04:33:34.904Z,101553.28
2022-08-03T04:36:04.996Z,101546.78
2022-08-03T04:38:36.005Z,101551.59
2022-08-03T04:41:03.562Z,101545.16
2022-08-03T04:43:32.830Z,101545.09
2022-08-03T04:46:00.138Z,101548.84
2022-08-03T04:48:27.272Z,101558.06
2022-08-03T04:50:54.498Z,101548.59
2022-08-03T04:53:21.367Z,101561.53
2022-08-03T04:55:48.230Z,101560.03
2022-08-03T04:58:14.633Z,101566.69
2022-08-03T05:00:41.028Z,101563.44
2022-08-03T05:03:19.503Z,101569.69
2022-08-03T05:05:50.895Z,101569.47
2022-08-03T05:08:22.665Z,101571.28
2022-08-03T05:10:54.451Z,101563.03
2022-08-03T05:13:21.083Z,101579.22
2022-08-03T05:15:47.502Z,101574.50
2022-08-03T05:18:14.509Z,101576.94
2022-08-03T05:20:41.371Z,101576.03
2022-08-03T05:23:07.812Z,101583.78
2022-08-03T05:25:34.314Z,101587.63
2022-08-03T05:28:00.727Z,101575.59
2022-08-03T05:30:33.967Z,101587.25
2022-08-03T05:33:02.626Z,101586.38
2022-08-03T05:35:57.955Z,101586.81
2022-08-03T05:38:23.928Z,101585.06
2022-08-03T05:40:56.977Z,101595.22
2022-08-03T05:43:24.455Z,101587.56
2022-08-03T05:46:11.663Z,101581.78
2022-08-03T05:48:37.466Z,101582.69
2022-08-03T05:51:10.427Z,101586.69
2022-08-03T05:53:37.530Z,101584.75
2022-08-03T05:56:13.889Z,101589.19
2022-08-03T05:58:43.335Z,101575.31
2022-08-03T06:01:09.749Z,101577.53
2022-08-03T06:03:36.239Z,101586.84
2022-08-03T06:06:02.618Z,101578.09
2022-08-03T06:08:29.222Z,101571.50
2022-08-03T06:10:55.615Z,101578.78
2022-08-03T06:13:22.032Z,101571.66
2022-08-03T06:15:48.535Z,101583.00
2022-08-03T06:18:14.945Z,101580.38
2022-08-03T06:20:41.315Z,101580.09
2022-08-03T06:23:07.962Z,101583.81
2022-08-03T06:25:42.780Z,101582.66
2022-08-03T06:28:42.431Z,101582.72
2022-08-03T06:31:06.730Z,101589.78
2022-08-03T06:34:30.571Z,101587.34
2022-08-03T06:36:19.910Z,101580.59
2022-08-03T06:38:46.708Z,101577.81
2022-08-03T06:41:13.272Z,101584.63
2022-08-03T06:44:03.364Z,101585.81
2022-08-03T06:46:26.067Z,101586.84
2022-08-03T06:48:52.931Z,101589.50
2022-08-03T06:51:19.415Z,101583.66
2022-08-03T06:53:45.788Z,101581.31
2022-08-03T06:56:12.152Z,101586.81
2022-08-03T06:58:38.530Z,101582.56
2022-08-03T07:01:04.960Z,101579.84
2022-08-03T07:03:31.552Z,101581.97
2022-08-03T07:05:59.672Z,101581.06
2022-08-03T07:08:33.818Z,101591.63
2022-08-03T07:11:01.654Z,101591.00
2022-08-03T07:13:28.627Z,101601.47
2022-08-03T07:15:56.621Z,101592.00
2022-08-03T07:18:29.289Z,101596.22
2022-08-03T07:20:59.408Z,101596.31
2022-08-03T07:23:25.876Z,101598.16
2022-08-03T07:25:52.629Z,101612.38
2022-08-03T07:28:20.021Z,101606.47
2022-08-03T07:30:47.178Z,101610.09
2022-08-03T07:33:13.880Z,101610.25
2022-08-03T07:35:40.328Z,101613.19
2022-08-03T07:38:06.802Z,101612.03
2022-08-03T07:40:33.249Z,101620.88
2022-08-03T07:42:59.932Z,101615.00
2022-08-03T07:45:26.783Z,101609.53
2022-08-03T07:47:54.095Z,101609.78
2022-08-03T07:50:21.305Z,101615.53
2022-08-03T07:52:48.040Z,101615.28
2022-08-03T07:55:14.833Z,101599.50
2022-08-03T07:57:41.333Z,101598.00
2022-08-03T08:00:14.599Z,101602.16
2022-08-03T08:02:41.970Z,101599.69
2022-08-03T08:05:08.737Z,101608.28
2022-08-03T08:07:35.124Z,101603.38
2022-08-03T08:10:01.577Z,101607.16
2022-08-03T08:12:28.224Z,101611.88
2022-08-03T08:14:54.596Z,101611.63
2022-08-03T08:17:21.111Z,101603.00
2022-08-03T08:19:51.697Z,101601.06
2022-08-03T08:22:29.725Z,101606.00
2022-08-03T08:24:57.694Z,101602.69
2022-08-03T08:27:24.068Z,101602.81
2022-08-03T08:29:54.237Z,101607.03
2022-08-03T08:32:23.070Z,101605.97
2022-08-03T08:34:49.734Z,101613.53
2022-08-03T08:37:16.412Z,101616.75
2022-08-03T08:39:42.806Z,101613.16
2022-08-03T08:42:16.662Z,101617.84
2022-08-03T08:44:43.269Z,101620.50
2022-08-03T08:47:10.167Z,101621.63
2022-08-03T08:49:40.057Z,101612.38
2022-08-03T08:52:25.276Z,101619.13
2022-08-03T08:55:00.227Z,101622.91
2022-08-03T08:57:42.333Z,101616.34
2022-08-03T09:00:14.055Z,101621.00
2022-08-03T09:02:44.339Z,101621.38
2022-08-03T09:05:31.456Z,101621.03
2022-08-03T09:08:05.292Z,101613.06
2022-08-03T09:10:31.808Z,101620.22
2022-08-03T09:12:58.229Z,101621.59
2022-08-03T09:15:32.715Z,101613.22
2022-08-03T09:18:01.295Z,101616.63
2022-08-03T09:20:31.211Z,101616.41
2022-08-03T09:23:51.225Z,101614.16
2022-08-03T09:26:01.631Z,101614.72
2022-08-03T09:29:00.060Z,101619.00
2022-08-03T09:31:39.524Z,101616.31
2022-08-03T09:34:12.610Z,101619.22
2022-08-03T09:36:40.713Z,101615.19
2022-08-03T09:39:11.261Z,101616.03
2022-08-03T09:41:39.671Z,101611.16
2022-08-03T09:44:06.324Z,101611.22
2022-08-03T09:46:33.329Z,101609.09
2022-08-03T09:49:11.748Z,101618.19
2022-08-03T09:52:32.329Z,101616.03
2022-08-03T09:54:27.846Z,101605.31
2022-08-03T09:56:54.680Z,101618.50
2022-08-03T09:59:29.811Z,101598.03
2022-08-03T10:01:57.699Z,101606.53
2022-08-03T10:04:24.732Z,101607.41
2022-08-03T10:07:13.696Z,101610.34
2022-08-03T10:09:54.934Z,101612.38
2022-08-03T10:12:21.867Z,101607.94
2022-08-03T10:14:48.302Z,101617.00
2022-08-03T10:17:14.954Z,101606.88
2022-08-03T10:19:41.811Z,101616.56
2022-08-03T10:22:16.236Z,101614.78
2022-08-03T10:25:00.714Z,101611.84
2022-08-03T10:27:31.580Z,101607.47
2022-08-03T10:30:03.231Z,101612.06
2022-08-03T10:32:41.016Z,101612.84
2022-08-03T10:35:21.587Z,101604.09
2022-08-03T10:38:04.002Z,101607.69
2022-08-03T10:40:49.520Z,101599.03
2022-08-03T10:43:36.441Z,101601.34
2022-08-03T10:46:07.200Z,101597.38
2022-08-03T10:48:35.689Z,101586.25
2022-08-03T10:51:03.391Z,101590.84
2022-08-03T10:53:54.884Z,101588.75
2022-08-03T10:56:53.380Z,101590.84
2022-08-03T10:59:46.736Z,101588.03
2022-08-03T11:02:14.699Z,101582.25
2022-08-03T11:04:42.101Z,101583.22
2022-08-03T11:07:24.667Z,101590.97
2022-08-03T11:09:56.275Z,101582.19
2022-08-03T11:12:30.017Z,101576.84
2022-08-03T11:15:00.780Z,101584.28
2022-08-03T11:17:27.300Z,101585.09
2022-08-03T11:19:57.803Z,101577.34
2022-08-03T11:22:25.352Z,101573.47
2022-08-03T11:24:53.960Z,101576.84
2022-08-03T11:27:23.109Z,101576.41
2022-08-03T11:30:10.828Z,101576.16
2022-08-03T11:32:37.318Z,101577.41
2022-08-03T11:35:12.920Z,101580.63
2022-08-03T11:38:04.450Z,101576.16
2022-08-03T11:40:40.594Z,101572.88
2022-08-03T11:43:37.202Z,101583.88
2022-08-03T11:46:06.106Z,101570.25
2022-08-03T11:48:38.547Z,101577.63
2022-08-03T11:51:18.474Z,101576.16
2022-08-03T11:53:47.712Z,101573.13
2022-08-03T11:56:14.158Z,101573.97
2022-08-03T11:59:16.384Z,101582.66
2022-08-03T12:01:41.715Z,101575.38
2022-08-03T12:04:08.375Z,101580.78
2022-08-03T12:06:54.653Z,101577.69
2022-08-03T12:09:21.477Z,101578.84
2022-08-03T12:11:59.888Z,101581.56
2022-08-03T12:14:48.788Z,101569.13
2022-08-03T12:17:14.763Z,101581.75
2022-08-03T12:19:44.874Z,101577.06
2022-08-03T12:22:13.474Z,101578.84
2022-08-03T12:24:46.593Z,101573.66
2022-08-03T12:27:23.539Z,101571.88
2022-08-03T12:29:58.444Z,101574.84
2022-08-03T12:32:29.444Z,101569.66
2022-08-03T12:35:05.948Z,101573.91
2022-08-03T12:37:32.666Z,101569.50
2022-08-03T12:40:07.853Z,101576.81
2022-08-03T12:42:38.817Z,101565.91
2022-08-03T12:45:21.651Z,101560.56
2022-08-03T12:47:56.272Z,101571.19
2022-08-03T12:50:33.816Z,101563.75
2022-08-03T12:53:02.621Z,101566.72
2022-08-03T12:55:57.267Z,101565.31
2022-08-03T12:58:34.500Z,101565.31
2022-08-03T13:01:05.143Z,101575.31
2022-08-03T13:03:54.550Z,101565.16
2022-08-03T13:06:25.493Z,101567.38
2022-08-03T13:09:06.287Z,101555.47
2022-08-03T13:11:55.948Z,101558.19
2022-08-03T13:14:20.599Z,101562.66
2022-08-03T13:16:48.683Z,101556.75
2022-08-03T13:19:15.908Z,101563.41
2022-08-03T13:22:02.183Z,101564.84
2022-08-03T13:24:30.370Z,101562.31
2022-08-03T13:26:57.024Z,101560.88
2022-08-03T13:29:23.669Z,101565.78
2022-08-03T13:31:50.601Z,101568.63
2022-08-03T13:34:22.268Z,101567.88
2022-08-03T13:39:57.155Z,101571.97
2022-08-03T13:42:23.222Z,101561.97
2022-08-03T13:44:49.796Z,101556.47
2022-08-03T13:47:16.241Z,101558.50
2022-08-03T13:49:42.860Z,101567.63
2022-08-03T13:52:25.300Z,101553.53
2022-08-03T13:54:51.740Z,101563.06
2022-08-03T13:58:04.606Z,101560.22
2022-08-03T14:00:06.635Z,101558.34
2022-08-03T14:02:33.119Z,101556.44
2022-08-03T14:04:59.568Z,101562.00
2022-08-03T14:07:25.956Z,101562.31
2022-08-03T14:09:52.331Z,101551.34
2022-08-03T14:12:18.976Z,101555.19
2022-08-03T14:14:45.343Z,101561.81
2022-08-03T14:17:11.740Z,101550.72
2022-08-03T14:19:52.542Z,101557.69
2022-08-03T14:22:20.424Z,101548.81
2022-08-03T14:24:46.819Z,101544.31
2022-08-03T14:27:13.226Z,101544.34
2022-08-03T14:29:39.603Z,101545.78
2022-08-03T14:32:11.694Z,101539.19
2022-08-03T14:34:39.686Z,101533.81
2022-08-03T14:37:06.228Z,101545.06
2022-08-03T14:42:20.379Z,101535.38
2022-08-03T14:44:47.211Z,101532.69
2022-08-03T14:47:13.694Z,101527.56
2022-08-03T14:50:37.900Z,101518.31
2022-08-03T14:52:26.593Z,101518.81
2022-08-03T14:54:59.401Z,101522.34
2022-08-03T14:57:26.328Z,101519.44
2022-08-03T14:59:56.359Z,101514.75
2022-08-03T15:02:25.378Z,101510.66
2022-08-03T15:04:52.272Z,101512.06
2022-08-03T15:07:19.236Z,101517.28
2022-08-03T15:09:46.004Z,101522.44
2022-08-03T15:12:12.410Z,101514.69
2022-08-03T15:14:38.937Z,101506.28
2022-08-03T15:17:05.996Z,101508.44
2022-08-03T15:20:03.302Z,101511.13
2022-08-03T15:22:20.635Z,101505.81
2022-08-03T15:24:51.572Z,101517.84
2022-08-03T15:27:18.320Z,101513.97
2022-08-03T15:30:05.501Z,101504.72
2022-08-03T15:32:31.391Z,101502.28
2022-08-03T15:34:57.889Z,101509.22
2022-08-03T15:37:25.598Z,101504.66
2022-08-03T15:39:59.537Z,101511.09
2022-08-03T15:42:28.243Z,101499.41
2022-08-03T15:44:58.501Z,101496.31
2022-08-03T15:47:25.187Z,101496.03
2022-08-03T15:49:51.590Z,101501.56
2022-08-03T15:52:17.997Z,101501.22
2022-08-03T15:54:44.361Z,101497.94
2022-08-03T15:57:14.412Z,101492.41
2022-08-03T15:59:40.912Z,101489.56
2022-08-03T16:02:07.419Z,101492.88
2022-08-03T16:04:33.884Z,101488.69
2022-08-03T16:07:00.259Z,101494.72
2022-08-03T16:09:43.374Z,101491.78
2022-08-03T16:12:11.880Z,101484.22
2022-08-03T16:14:51.975Z,101487.16
2022-08-03T16:17:20.352Z,101490.16
2022-08-03T16:19:54.985Z,101490.75
2022-08-03T16:22:22.889Z,101492.28
2022-08-03T16:24:49.952Z,101483.72
2022-08-03T16:27:17.536Z,101487.63
2022-08-03T16:30:04.601Z,101484.56
2022-08-03T16:32:31.315Z,101479.88
2022-08-03T16:34:57.757Z,101478.31
2022-08-03T16:37:38.174Z,101474.03
2022-08-03T16:40:08.842Z,101467.59
2022-08-03T16:42:44.132Z,101468.84
2022-08-03T16:45:10.827Z,101474.06
2022-08-03T16:47:37.218Z,101467.09
2022-08-03T16:50:12.823Z,101471.34
2022-08-03T16:52:42.107Z,101462.53
2022-08-03T16:55:48.477Z,101470.69
2022-08-03T16:58:05.929Z,101467.19
2022-08-03T17:00:41.644Z,101472.78
2022-08-03T17:03:18.971Z,101472.34
2022-08-03T17:05:48.281Z,101474.44
2022-08-03T17:08:26.148Z,101478.16
2022-08-03T17:10:54.416Z,101472.19
2022-08-03T17:13:22.066Z,101472.97
2022-08-03T17:16:01.073Z,101475.25
2022-08-03T17:18:34.152Z,101473.69
2022-08-03T17:21:06.702Z,101469.06
2022-08-03T17:24:00.779Z,101466.72
2022-08-03T17:26:30.666Z,101481.09
2022-08-03T17:29:12.842Z,101476.66
2022-08-03T17:31:48.847Z,101470.44
2022-08-03T17:34:26.591Z,101484.19
2022-08-03T17:37:17.741Z,101473.84
2022-08-03T17:39:58.621Z,101473.91
2022-08-03T17:42:29.580Z,101480.41
2022-08-03T17:44:58.708Z,101479.88
2022-08-03T17:47:41.813Z,101476.28
2022-08-03T17:50:24.211Z,101477.25
2022-08-03T17:56:40.837Z,101484.88
2022-08-03T17:59:50.537Z,101478.28
2022-08-03T18:03:03.275Z,101477.03
2022-08-03T18:06:11.341Z,101481.19
2022-08-03T18:08:32.380Z,101488.50
2022-08-03T18:11:09.562Z,101485.31
2022-08-03T18:13:59.093Z,101487.41
2022-08-03T18:16:33.388Z,101478.63
2022-08-03T18:19:01.576Z,101483.78
2022-08-03T18:22:02.053Z,101487.34
2022-08-03T18:24:29.506Z,101485.78
2022-08-03T18:26:57.132Z,101476.53
2022-08-03T18:29:24.755Z,101481.09
2022-08-03T18:32:01.480Z,101482.28
2022-08-03T18:34:34.264Z,101475.69
2022-08-03T18:37:07.545Z,101479.91
2022-08-03T18:39:49.281Z,101474.16
2022-08-03T18:42:19.185Z,101476.19
2022-08-03T18:44:54.020Z,101479.31
2022-08-03T18:47:51.673Z,101477.00
2022-08-03T18:50:34.688Z,101478.00
2022-08-03T18:54:03.597Z,101479.38
2022-08-03T18:56:30.396Z,101480.28
2022-08-03T18:59:03.200Z,101475.59
2022-08-03T19:02:00.881Z,101484.06
2022-08-03T19:04:38.722Z,101490.47
2022-08-03T19:07:16.443Z,101488.47
2022-08-03T19:09:52.181Z,101489.50
2022-08-03T19:12:37.420Z,101493.47
2022-08-03T19:15:12.702Z,101487.72
2022-08-03T19:17:52.814Z,101491.28
2022-08-03T19:20:25.486Z,101494.72
2022-08-03T19:22:53.510Z,101497.84
2022-08-03T19:25:33.402Z,101494.63
2022-08-03T19:28:03.933Z,101497.34
2022-08-03T19:30:38.909Z,101494.72
2022-08-03T19:33:07.322Z,101498.25
2022-08-03T19:35:51.217Z,101512.38
2022-08-03T19:38:28.594Z,101504.50
2022-08-03T19:41:13.764Z,101509.63
2022-08-03T19:46:49.254Z,101513.66
2022-08-03T19:49:16.497Z,101507.31
2022-08-03T19:52:02.158Z,101512.34
2022-08-03T19:54:53.757Z,101505.97
2022-08-03T19:57:27.146Z,101505.44
2022-08-03T19:59:55.489Z,101503.06
2022-08-03T20:02:26.089Z,101503.84
2022-08-03T20:04:54.263Z,101501.72
2022-08-03T20:07:22.846Z,101502.28
2022-08-03T20:09:56.050Z,101504.09
2022-08-03T20:12:33.213Z,101506.44
2022-08-03T20:15:04.571Z,101491.53
2022-08-03T20:17:54.570Z,101497.66
2022-08-03T20:20:30.169Z,101489.66
2022-08-03T20:22:58.459Z,101487.00
2022-08-03T20:25:37.913Z,101490.13
2022-08-03T20:28:14.013Z,101487.41
2022-08-03T20:30:47.261Z,101486.84
2022-08-03T20:33:18.545Z,101488.31
2022-08-03T20:38:33.417Z,101489.34
2022-08-03T20:41:10.306Z,101486.88
2022-08-03T20:43:36.818Z,101487.38
2022-08-03T20:46:31.889Z,101483.88
2022-08-03T20:48:50.140Z,101494.41
2022-08-03T20:51:19.902Z,101493.34
2022-08-03T20:53:59.427Z,101489.59
2022-08-03T20:56:32.175Z,101477.63
2022-08-03T20:59:05.618Z,101488.97
2022-08-03T21:01:36.218Z,101494.19
2022-08-03T21:04:09.327Z,101487.03
2022-08-03T21:06:41.882Z,101483.41
2022-08-03T21:09:18.395Z,101490.97
2022-08-03T21:11:49.904Z,101482.97
2022-08-03T21:13:04.733Z,101480.84
2022-08-03T21:13:07.169Z,101491.28
2022-08-03T21:13:08.996Z,101507.50
2022-08-03T21:14:25.224Z,101482.41
2022-08-03T21:16:52.912Z,101478.66
2022-08-03T21:19:21.662Z,101478.13
2022-08-03T21:21:50.483Z,101469.88
2022-08-03T21:24:19.499Z,101465.56
2022-08-03T21:26:48.920Z,101462.81
2022-08-03T21:29:16.784Z,101466.47
2022-08-03T21:31:43.752Z,101474.34
2022-08-03T21:34:10.346Z,101468.66
2022-08-03T21:36:45.415Z,101461.25
2022-08-03T21:39:12.094Z,101458.31
2022-08-03T21:41:47.436Z,101459.56
2022-08-03T21:44:28.743Z,101464.75
2022-08-03T21:46:56.784Z,101459.31
2022-08-03T21:50:05.406Z,101456.97
2022-08-03T21:52:12.788Z,101457.53
2022-08-03T21:54:42.635Z,101463.00
2022-08-03T21:57:18.476Z,101460.09
2022-08-03T21:59:52.073Z,101454.59
2022-08-03T22:02:24.306Z,101461.72
2022-08-03T22:04:56.388Z,101454.50
2022-08-03T22:07:25.711Z,101446.59
2022-08-03T22:09:52.377Z,101455.34
2022-08-03T22:12:21.695Z,101453.97
2022-08-03T22:14:49.255Z,101450.69
2022-08-03T22:17:54.957Z,101453.56
2022-08-03T22:20:14.831Z,101446.84
2022-08-03T22:22:44.808Z,101447.28
2022-08-03T22:25:27.121Z,101449.84
2022-08-03T22:27:54.872Z,101458.34
2022-08-03T22:30:21.546Z,101440.88
2022-08-03T22:32:51.867Z,101442.97
2022-08-03T22:35:20.282Z,101442.63
2022-08-03T22:37:49.499Z,101440.47
2022-08-03T22:40:16.648Z,101435.44
2022-08-03T22:42:52.133Z,101437.03
2022-08-03T22:46:07.126Z,101436.38
2022-08-03T22:48:07.479Z,101430.78
2022-08-03T22:50:34.717Z,101435.97
2022-08-03T22:53:01.347Z,101431.66
2022-08-03T22:55:27.984Z,101429.63
2022-08-03T22:57:55.928Z,101434.84
2022-08-03T23:00:23.309Z,101426.00
2022-08-03T23:02:51.323Z,101423.50
2022-08-03T23:06:00.649Z,101427.44
2022-08-03T23:08:14.351Z,101426.53
2022-08-03T23:10:46.769Z,101428.06
2022-08-03T23:13:23.390Z,101423.47
2022-08-03T23:15:55.110Z,101422.31
2022-08-03T23:18:23.295Z,101426.69
2022-08-03T23:20:54.066Z,101422.91
2022-08-03T23:23:22.656Z,101428.09
2022-08-03T23:25:51.319Z,101420.31
2022-08-03T23:28:18.417Z,101430.31
2022-08-03T23:30:52.418Z,101433.66
2022-08-03T23:33:25.382Z,101433.66
2022-08-03T23:36:29.524Z,101431.94
2022-08-03T23:38:44.992Z,101431.25
2022-08-03T23:41:12.596Z,101427.47
2022-08-03T23:43:51.807Z,101431.38
2022-08-03T23:46:22.331Z,101425.75
2022-08-03T23:48:57.374Z,101428.63
2022-08-03T23:51:45.405Z,101415.44
2022-08-03T23:54:40.419Z,101416.03
2022-08-03T23:57:25.442Z,101420.75
